Time;durP1;ratioP1;P1;durP2;ratioP2;P2;SDS_P1;SDS_P2;PMS_P1;PMS_P2;Temp;Humidity;BMP_temperature;BMP_pressure;BME280_temperature;BME280_humidity;BME280_pressure;Samples;Min_cycle;Max_cycle;Signal;HPM_P1;HPM_P2
2022/01/10 00:00:35;;;;;;;7.43;2.50;;;21.30;41.90;;;;;;5036606;28;20164;-61
2022/01/10 00:03:02;;;;;;;4.85;2.50;;;21.20;41.80;;;;;;5035236;28;20067;-61
2022/01/10 00:05:27;;;;;;;5.25;2.33;;;21.20;41.90;;;;;;5034308;28;20635;-61
2022/01/10 00:07:53;;;;;;;5.30;2.40;;;21.20;41.80;;;;;;5034657;28;20612;-61
2022/01/10 00:10:19;;;;;;;8.35;3.10;;;21.20;41.80;;;;;;5033046;28;40429;-61
2022/01/10 00:12:45;;;;;;;5.38;2.40;;;21.20;41.80;;;;;;5033976;28;20046;-60
2022/01/10 00:15:12;;;;;;;4.85;2.53;;;21.20;41.70;;;;;;5039089;28;20076;-61
2022/01/10 00:17:38;;;;;;;5.55;2.15;;;21.10;41.70;;;;;;5033731;28;20068;-61
2022/01/10 00:20:09;;;;;;;8.15;2.75;;;21.10;41.70;;;;;;5036139;28;20562;-60
2022/01/10 00:22:35;;;;;;;6.57;2.65;;;21.10;41.60;;;;;;5035661;28;20057;-61
2022/01/10 00:25:01;;;;;;;5.07;2.30;;;21.10;41.70;;;;;;5034889;28;32725;-60
2022/01/10 00:27:27;;;;;;;6.20;2.83;;;21.00;41.60;;;;;;5035871;28;20505;-61
2022/01/10 00:29:52;;;;;;;6.60;2.47;;;21.00;41.60;;;;;;5034604;28;20037;-61
2022/01/10 00:32:18;;;;;;;4.68;2.30;;;21.00;41.60;;;;;;5035514;28;20037;-61
2022/01/10 00:34:44;;;;;;;6.18;2.30;;;21.00;41.60;;;;;;5034822;28;20048;-60
2022/01/10 00:37:09;;;;;;;6.32;2.58;;;21.00;41.50;;;;;;5038210;28;20144;-61
2022/01/10 00:39:36;;;;;;;7.65;2.88;;;20.90;41.50;;;;;;5031299;28;30467;-61
2022/01/10 00:42:02;;;;;;;7.70;2.72;;;20.90;41.60;;;;;;5034798;28;20045;-61
2022/01/10 00:44:31;;;;;;;4.18;2.05;;;20.90;41.50;;;;;;5034422;28;20033;-60
2022/01/10 00:46:56;;;;;;;5.72;2.70;;;20.90;41.50;;;;;;5037824;28;20060;-61
2022/01/10 00:49:22;;;;;;;6.70;2.80;;;20.90;41.50;;;;;;5033393;28;20090;-61
2022/01/10 00:51:48;;;;;;;6.03;2.20;;;20.90;41.50;;;;;;5035355;28;20515;-61
2022/01/10 00:54:13;;;;;;;5.40;2.50;;;20.90;41.40;;;;;;5030492;28;38399;-61
2022/01/10 00:56:39;;;;;;;5.72;2.10;;;20.80;41.30;;;;;;5033822;28;20155;-61
2022/01/10 00:59:05;;;;;;;6.28;2.50;;;20.80;41.30;;;;;;5034478;28;20032;-61
2022/01/10 01:01:30;;;;;;;4.93;2.22;;;20.80;41.30;;;;;;5034734;28;20522;-61
2022/01/10 01:03:56;;;;;;;7.10;2.75;;;20.80;41.30;;;;;;5035373;28;20744;-61
2022/01/10 01:06:21;;;;;;;6.85;2.35;;;20.80;41.30;;;;;;5034221;28;25604;-61
2022/01/10 01:08:47;;;;;;;6.90;2.58;;;20.70;41.20;;;;;;5033945;28;20041;-61
2022/01/10 01:14:04;;;;;;;11.50;2.90;;;20.70;41.20;;;;;;5036553;28;20057;-61
2022/01/10 01:19:50;;;;;;;4.43;2.45;;;20.60;41.10;;;;;;5034477;28;20033;-60
2022/01/10 01:24:35;;;;;;;5.40;2.40;;;20.60;41.10;;;;;;5035254;28;20502;-60
2022/01/10 01:27:01;;;;;;;4.15;2.05;;;20.60;41.10;;;;;;5033713;28;20043;-61
2022/01/10 01:29:29;;;;;;;4.35;2.53;;;20.60;41.00;;;;;;5038201;28;20149;-61
2022/01/10 01:31:55;;;;;;;6.38;2.63;;;20.60;41.00;;;;;;5036319;28;20034;-61
2022/01/10 01:34:23;;;;;;;5.35;2.50;;;20.60;41.00;;;;;;5031943;28;40624;-61
2022/01/10 01:36:52;;;;;;;4.95;2.22;;;20.60;41.00;;;;;;5033166;28;20059;-60
2022/01/10 01:39:21;;;;;;;4.80;2.28;;;20.60;41.00;;;;;;5034315;28;20048;-60
2022/01/10 01:41:54;;;;;;;6.20;2.47;;;20.50;40.90;;;;;;5033915;28;20427;-61
2022/01/10 01:44:21;;;;;;;4.75;2.45;;;20.50;40.90;;;;;;5033979;28;20044;-61
2022/01/10 01:46:46;;;;;;;5.72;2.53;;;20.50;40.90;;;;;;5034758;28;20109;-61
2022/01/10 01:49:13;;;;;;;6.15;2.53;;;20.50;40.90;;;;;;5032344;28;45907;-61
2022/01/10 01:51:39;;;;;;;6.50;2.53;;;20.50;40.90;;;;;;5035554;28;20033;-60
2022/01/10 01:54:05;;;;;;;3.97;2.20;;;20.50;40.80;;;;;;5034232;28;20424;-61
2022/01/10 01:56:31;;;;;;;5.05;2.50;;;20.40;40.80;;;;;;5034968;28;20032;-61
2022/01/10 01:58:57;;;;;;;3.85;2.25;;;20.40;40.80;;;;;;5034928;28;20862;-61
2022/01/10 02:01:24;;;;;;;6.68;2.78;;;20.40;40.70;;;;;;5033215;28;20141;-60
2022/01/10 02:03:52;;;;;;;4.88;2.22;;;20.40;40.70;;;;;;5031260;28;32970;-61
2022/01/10 02:06:17;;;;;;;5.70;2.20;;;20.40;40.70;;;;;;5032402;28;20284;-61
2022/01/10 02:08:43;;;;;;;4.32;2.05;;;20.40;40.70;;;;;;5033424;28;20041;-60
2022/01/10 02:11:12;;;;;;;6.65;2.65;;;20.40;40.70;;;;;;5032800;28;20029;-61
2022/01/10 02:13:39;;;;;;;4.95;2.30;;;20.40;40.60;;;;;;5032075;28;20085;-61
2022/01/10 02:16:06;;;;;;;6.15;2.40;;;20.30;40.60;;;;;;5032416;28;20036;-61
2022/01/10 02:18:33;;;;;;;6.20;2.58;;;20.30;40.60;;;;;;5032551;28;40876;-61
2022/01/10 02:21:03;;;;;;;4.97;2.13;;;20.30;40.60;;;;;;5031859;28;20048;-60
2022/01/10 02:23:29;;;;;;;4.35;2.28;;;20.30;40.50;;;;;;5033497;28;20424;-61
2022/01/10 02:25:55;;;;;;;6.75;2.30;;;20.30;40.60;;;;;;5032443;28;20045;-61
2022/01/10 02:28:22;;;;;;;3.63;2.42;;;20.20;40.50;;;;;;5035608;28;20116;-60
2022/01/10 02:30:55;;;;;;;3.90;2.17;;;20.20;40.40;;;;;;5029933;28;37930;-61
2022/01/10 02:33:21;;;;;;;4.78;2.30;;;20.20;40.40;;;;;;5033915;28;20095;-60
2022/01/10 02:35:58;;;;;;;4.28;2.65;;;20.20;40.40;;;;;;5032338;28;20037;-61
2022/01/10 02:38:24;;;;;;;4.07;2.10;;;20.20;40.40;;;;;;5034043;28;20041;-61
2022/01/10 02:40:51;;;;;;;3.90;2.50;;;20.20;40.40;;;;;;5033068;28;20396;-61
2022/01/10 02:43:18;;;;;;;5.28;2.65;;;20.20;40.40;;;;;;5031995;28;20049;-60
2022/01/10 02:45:44;;;;;;;7.72;2.58;;;20.20;40.40;;;;;;5029937;28;33170;-61
2022/01/10 02:48:10;;;;;;;4.25;2.55;;;20.20;40.30;;;;;;5032378;28;20053;-60
2022/01/10 02:50:35;;;;;;;4.72;2.28;;;20.20;40.30;;;;;;5036383;28;20025;-61
2022/01/10 02:53:01;;;;;;;4.40;2.50;;;20.10;40.30;;;;;;5030124;28;20734;-59
2022/01/10 02:55:27;;;;;;;4.32;2.50;;;20.10;40.20;;;;;;5033868;28;20055;-61
2022/01/10 02:57:52;;;;;;;5.55;2.53;;;20.10;40.20;;;;;;5033184;28;20048;-60
2022/01/10 03:00:21;;;;;;;3.97;2.45;;;20.10;40.20;;;;;;5029235;28;42937;-60
2022/01/10 03:02:50;;;;;;;4.45;2.13;;;20.10;40.20;;;;;;5027911;28;20544;-59
2022/01/10 03:05:17;;;;;;;4.55;2.60;;;20.10;40.20;;;;;;5032733;28;20804;-60
2022/01/10 03:07:42;;;;;;;5.85;2.92;;;20.10;40.10;;;;;;5030103;28;20429;-60
2022/01/10 03:10:08;;;;;;;4.20;2.70;;;20.00;40.10;;;;;;5034395;28;20103;-60
2022/01/10 03:12:35;;;;;;;5.32;2.45;;;20.00;40.00;;;;;;5031918;28;35286;-60
2022/01/10 03:15:07;;;;;;;5.65;2.53;;;20.00;40.00;;;;;;5033549;28;20078;-60
2022/01/10 03:17:33;;;;;;;6.10;2.75;;;20.00;40.00;;;;;;5035362;28;20128;-61
2022/01/10 03:19:58;;;;;;;5.85;2.17;;;20.00;40.00;;;;;;5029962;28;20068;-61
2022/01/10 03:22:26;;;;;;;5.43;2.40;;;20.00;40.00;;;;;;5033423;28;20188;-60
2022/01/10 03:24:52;;;;;;;5.57;3.03;;;20.00;40.00;;;;;;5032748;28;20119;-60
2022/01/10 03:27:18;;;;;;;5.80;2.28;;;20.00;40.00;;;;;;5033482;28;40821;-61
2022/01/10 03:29:43;;;;;;;6.63;2.53;;;20.00;40.00;;;;;;5032202;28;20056;-61
2022/01/10 03:32:11;;;;;;;5.57;2.60;;;20.00;39.90;;;;;;5033870;28;20068;-60
2022/01/10 03:34:37;;;;;;;6.85;2.67;;;20.00;39.90;;;;;;5033148;28;20511;-61
2022/01/10 03:37:03;;;;;;;5.13;2.60;;;20.00;40.00;;;;;;5033692;28;20052;-60
2022/01/10 03:39:29;;;;;;;3.85;2.22;;;20.00;40.60;;;;;;5030470;28;20079;-62
2022/01/10 03:41:54;;;;;;;4.80;2.92;;;20.00;39.90;;;;;;5031134;28;42957;-60
2022/01/10 03:44:20;;;;;;;5.80;2.60;;;19.90;40.60;;;;;;5033019;28;20516;-60
2022/01/10 03:46:47;;;;;;;4.38;2.55;;;19.90;39.80;;;;;;5032424;28;20046;-61
2022/01/10 03:49:13;;;;;;;4.97;2.58;;;19.90;39.70;;;;;;5033399;28;20041;-60
2022/01/10 03:51:39;;;;;;;6.93;2.75;;;19.90;39.70;;;;;;5032761;28;20037;-60
2022/01/10 03:54:04;;;;;;;6.93;2.42;;;19.90;39.70;;;;;;5033692;28;20045;-60
2022/01/10 03:56:31;;;;;;;6.72;2.72;;;19.90;39.70;;;;;;5032377;28;40604;-60
2022/01/10 03:58:57;;;;;;;4.38;2.60;;;19.80;39.60;;;;;;5035949;28;20053;-60
2022/01/10 04:01:23;;;;;;;4.82;2.95;;;19.80;39.60;;;;;;5037828;28;20036;-60
2022/01/10 04:03:49;;;;;;;6.13;2.72;;;19.80;39.60;;;;;;5036977;28;20044;-60
2022/01/10 04:06:15;;;;;;;5.28;2.30;;;19.80;39.60;;;;;;5036470;28;20182;-61
2022/01/10 04:08:41;;;;;;;4.68;2.35;;;19.80;39.60;;;;;;5032980;28;20052;-60
2022/01/10 04:11:06;;;;;;;4.35;2.30;;;19.80;39.60;;;;;;5033738;28;40679;-61
2022/01/10 04:13:32;;;;;;;5.30;2.63;;;19.80;39.50;;;;;;5037929;28;20052;-61
2022/01/10 04:15:58;;;;;;;6.68;2.95;;;19.80;39.50;;;;;;5034880;28;20033;-61
2022/01/10 04:18:24;;;;;;;3.97;2.53;;;19.80;39.50;;;;;;5036813;28;20105;-61
2022/01/10 04:20:49;;;;;;;4.82;2.60;;;19.80;39.50;;;;;;5034798;28;20115;-60
2022/01/10 04:23:16;;;;;;;6.40;2.60;;;19.80;39.50;;;;;;5032323;28;33011;-61
2022/01/10 04:25:42;;;;;;;4.85;2.70;;;19.70;39.40;;;;;;5035291;28;20041;-60
2022/01/10 04:28:08;;;;;;;3.78;2.40;;;19.70;39.30;;;;;;5036728;28;20913;-61
2022/01/10 04:30:34;;;;;;;3.33;2.10;;;19.70;39.30;;;;;;5035049;28;20120;-61
2022/01/10 04:33:01;;;;;;;4.45;2.17;;;19.70;39.30;;;;;;5034983;28;20055;-60
2022/01/10 04:35:28;;;;;;;5.40;2.67;;;19.70;39.30;;;;;;5035891;28;20041;-61
2022/01/10 04:37:53;;;;;;;3.63;2.40;;;19.70;39.30;;;;;;5034222;28;40511;-61
2022/01/10 04:40:19;;;;;;;3.60;2.40;;;19.70;39.30;;;;;;5036265;28;20479;-61
2022/01/10 04:42:45;;;;;;;4.13;2.53;;;19.70;39.40;;;;;;5035670;28;20029;-61
2022/01/10 04:45:11;;;;;;;5.25;2.90;;;19.60;39.20;;;;;;5037112;28;20376;-60
2022/01/10 04:47:37;;;;;;;3.03;2.35;;;19.60;39.20;;;;;;5034961;28;20049;-60
2022/01/10 04:50:24;;;;;;;4.55;2.60;;;19.60;39.20;;;;;;5035641;28;20044;-60
2022/01/10 04:52:51;;;;;;;4.10;2.40;;;19.70;39.20;;;;;;5033399;28;38147;-60
2022/01/10 04:55:17;;;;;;;4.88;2.50;;;19.70;39.20;;;;;;5034689;28;20051;-60
2022/01/10 04:57:43;;;;;;;4.53;2.50;;;19.60;39.10;;;;;;5034678;28;20042;-60
2022/01/10 05:00:12;;;;;;;4.85;2.25;;;19.60;39.10;;;;;;5034431;28;20067;-60
2022/01/10 05:02:38;;;;;;;4.63;2.33;;;19.60;39.10;;;;;;5031182;28;20056;-60
2022/01/10 05:05:04;;;;;;;7.00;2.67;;;19.60;39.10;;;;;;5034452;28;20621;-61
2022/01/10 05:07:30;;;;;;;4.78;2.60;;;19.60;39.10;;;;;;5033231;28;20041;-61
2022/01/10 05:09:57;;;;;;;3.53;2.83;;;19.60;39.10;;;;;;5036708;28;20048;-61
2022/01/10 05:12:24;;;;;;;4.13;2.47;;;19.60;39.10;;;;;;5035450;28;20630;-60
2022/01/10 05:14:50;;;;;;;5.18;2.90;;;19.60;39.10;;;;;;5034493;28;20090;-61
2022/01/10 05:17:18;;;;;;;4.57;2.80;;;19.50;39.00;;;;;;5037990;28;20046;-60
2022/01/10 05:19:44;;;;;;;4.20;2.78;;;19.50;39.00;;;;;;5028041;28;32896;-61
2022/01/10 05:22:09;;;;;;;4.10;2.42;;;19.50;39.00;;;;;;5033267;28;20040;-60
2022/01/10 05:24:35;;;;;;;4.43;2.50;;;19.50;39.10;;;;;;5016498;28;20065;-60
2022/01/10 05:27:00;;;;;;;4.47;2.53;;;19.50;39.10;;;;;;5034712;28;20147;-60
2022/01/10 05:29:26;;;;;;;3.22;2.58;;;19.50;39.10;;;;;;5033159;28;20056;-60
2022/01/10 05:31:51;;;;;;;3.08;2.17;;;19.50;39.10;;;;;;5033111;28;20553;-60
2022/01/10 05:34:17;;;;;;;5.03;2.80;;;19.60;39.30;;;;;;5032660;28;36298;-59
2022/01/10 05:36:43;;;;;;;3.17;2.13;;;19.50;39.40;;;;;;5034070;28;20440;-58
2022/01/10 05:39:08;;;;;;;4.20;2.42;;;19.50;39.60;;;;;;5034691;28;20041;-58
2022/01/10 05:41:35;;;;;;;5.47;2.60;;;19.50;39.60;;;;;;5034167;28;20151;-59
2022/01/10 05:44:00;;;;;;;3.40;2.20;;;19.60;39.80;;;;;;5033932;28;20427;-58
2022/01/10 05:46:26;;;;;;;4.65;2.90;;;19.50;39.80;;;;;;5034202;28;20040;-58
2022/01/10 05:48:53;;;;;;;5.53;2.92;;;19.60;39.90;;;;;;5031981;28;20052;-59
2022/01/10 05:51:20;;;;;;;3.28;2.42;;;19.60;40.10;;;;;;5034668;28;20128;-60
2022/01/10 05:53:47;;;;;;;4.47;2.35;;;19.60;40.10;;;;;;5032925;28;20420;-60
2022/01/10 05:56:12;;;;;;;5.63;2.70;;;19.60;40.20;;;;;;5034125;28;20056;-59
2022/01/10 05:58:38;;;;;;;2.90;2.33;;;19.60;40.10;;;;;;5032321;28;20049;-59
2022/01/10 06:01:04;;;;;;;7.53;2.75;;;19.60;40.00;;;;;;5035336;28;20427;-60
2022/01/10 06:03:30;;;;;;;4.07;2.25;;;19.60;40.00;;;;;;5032085;28;47888;-60
2022/01/10 06:05:55;;;;;;;4.78;2.45;;;19.60;40.00;;;;;;5032188;28;20033;-59
2022/01/10 06:08:21;;;;;;;4.53;2.55;;;19.60;40.10;;;;;;5033045;28;20269;-59
2022/01/10 06:10:47;;;;;;;6.63;2.67;;;19.60;40.00;;;;;;5031779;28;20450;-59
2022/01/10 06:13:13;;;;;;;5.32;2.47;;;19.60;40.00;;;;;;5037496;28;20040;-60
2022/01/10 06:15:41;;;;;;;4.50;2.50;;;19.70;40.10;;;;;;5030542;28;41114;-61
2022/01/10 06:18:06;;;;;;;3.92;2.50;;;19.70;40.10;;;;;;5035236;28;20061;-59
2022/01/10 06:20:32;;;;;;;4.07;2.20;;;19.70;40.00;;;;;;5032682;28;20126;-59
2022/01/10 06:22:57;;;;;;;3.75;2.50;;;19.70;39.90;;;;;;5034615;28;20484;-58
2022/01/10 06:25:26;;;;;;;3.55;2.58;;;19.70;39.90;;;;;;5034644;28;20033;-59
2022/01/10 06:27:53;;;;;;;5.50;2.78;;;19.70;39.80;;;;;;5032373;28;20520;-60
2022/01/10 06:30:18;;;;;;;3.63;2.55;;;19.70;39.70;;;;;;5030368;28;28004;-60
2022/01/10 06:32:44;;;;;;;3.75;2.38;;;19.70;39.70;;;;;;5036194;28;20052;-60
2022/01/10 06:35:10;;;;;;;4.07;2.45;;;19.70;39.70;;;;;;5034265;28;20045;-60
2022/01/10 06:37:36;;;;;;;3.67;2.17;;;19.80;39.70;;;;;;5035781;28;20029;-59
2022/01/10 06:40:03;;;;;;;5.38;2.50;;;19.80;39.70;;;;;;5033507;28;20041;-60
2022/01/10 06:42:29;;;;;;;3.22;2.28;;;19.80;39.70;;;;;;5033370;28;20498;-60
2022/01/10 06:44:55;;;;;;;3.47;2.30;;;19.80;39.60;;;;;;5036449;28;33150;-59
2022/01/10 06:47:20;;;;;;;4.03;2.40;;;19.80;39.60;;;;;;5034260;28;20160;-60
2022/01/10 06:49:46;;;;;;;4.53;2.58;;;19.80;39.50;;;;;;5031817;28;20056;-59
2022/01/10 06:52:11;;;;;;;3.38;2.20;;;19.80;39.50;;;;;;5037032;28;20037;-60
2022/01/10 06:54:37;;;;;;;3.90;2.50;;;19.80;39.50;;;;;;5031449;28;20090;-60
2022/01/10 06:57:03;;;;;;;2.45;2.00;;;19.80;39.30;;;;;;5033597;28;20036;-60
2022/01/10 06:59:28;;;;;;;3.70;2.25;;;19.90;39.30;;;;;;5031536;28;30583;-60
2022/01/10 07:01:58;;;;;;;3.50;2.13;;;19.90;39.30;;;;;;5033020;28;20564;-60
2022/01/10 07:04:27;;;;;;;3.20;2.40;;;19.90;39.40;;;;;;5034382;28;20047;-61
2022/01/10 07:06:54;;;;;;;4.85;2.20;;;19.90;39.50;;;;;;5032301;28;20099;-60
2022/01/10 07:09:20;;;;;;;3.30;2.05;;;19.90;39.50;;;;;;5032769;28;20156;-60
2022/01/10 07:11:46;;;;;;;3.65;2.13;;;19.90;39.60;;;;;;5032080;28;38252;-60
2022/01/10 07:14:13;;;;;;;3.53;1.90;;;20.00;39.60;;;;;;5034702;28;20032;-60
2022/01/10 07:16:39;;;;;;;3.22;2.20;;;20.00;39.60;;;;;;5035379;28;20045;-60
2022/01/10 07:19:05;;;;;;;4.47;2.25;;;20.00;39.60;;;;;;5033155;28;20030;-60
2022/01/10 07:21:31;;;;;;;4.85;2.20;;;20.00;39.50;;;;;;5034634;28;20045;-60
2022/01/10 07:23:56;;;;;;;4.93;2.00;;;20.00;39.50;;;;;;5031121;28;20040;-59
2022/01/10 07:26:22;;;;;;;3.47;2.00;;;20.00;39.50;;;;;;5030007;28;38669;-60
2022/01/10 07:28:48;;;;;;;4.25;2.10;;;20.00;39.40;;;;;;5033727;28;20061;-60
2022/01/10 07:31:14;;;;;;;2.97;2.22;;;20.00;39.40;;;;;;5034842;28;20503;-60
2022/01/10 07:33:39;;;;;;;3.03;1.80;;;20.10;39.60;;;;;;5037803;28;20463;-60
2022/01/10 07:36:05;;;;;;;2.97;2.00;;;20.10;39.40;;;;;;5037415;28;20044;-58
2022/01/10 07:38:35;;;;;;;2.33;1.90;;;20.10;39.40;;;;;;5036950;28;20549;-60
2022/01/10 07:41:04;;;;;;;3.92;1.80;;;20.10;39.30;;;;;;5035378;28;30878;-59
2022/01/10 07:43:30;;;;;;;2.75;1.95;;;20.10;39.10;;;;;;5034685;28;20447;-60
2022/01/10 07:45:55;;;;;;;2.83;2.00;;;20.10;39.10;;;;;;5035569;28;20083;-59
2022/01/10 07:48:21;;;;;;;2.83;2.00;;;20.10;39.10;;;;;;5035044;28;20037;-61
2022/01/10 07:50:47;;;;;;;2.03;1.90;;;20.10;39.00;;;;;;5040828;28;20048;-60
2022/01/10 07:53:12;;;;;;;2.58;2.13;;;20.20;39.00;;;;;;5036746;28;20041;-60
2022/01/10 07:55:38;;;;;;;2.35;1.90;;;20.20;39.60;;;;;;5036271;28;33293;-60
2022/01/10 07:58:03;;;;;;;2.90;2.28;;;20.20;38.80;;;;;;5034317;28;20120;-60
2022/01/10 08:00:29;;;;;;;1.85;1.75;;;20.20;38.80;;;;;;5034798;28;20388;-59
2022/01/10 08:02:54;;;;;;;4.57;2.00;;;20.20;38.80;;;;;;5033984;28;20488;-59
2022/01/10 08:05:20;;;;;;;2.33;1.90;;;20.20;38.70;;;;;;5032715;28;20045;-60
2022/01/10 08:07:46;;;;;;;2.00;1.80;;;20.20;38.70;;;;;;5036618;28;20040;-59
2022/01/10 08:10:11;;;;;;;2.78;2.00;;;20.30;38.70;;;;;;5033468;28;33017;-59
2022/01/10 08:12:37;;;;;;;2.38;2.13;;;20.30;38.70;;;;;;5035817;28;20404;-61
2022/01/10 08:15:04;;;;;;;3.45;2.20;;;20.30;38.60;;;;;;5035006;28;20680;-60
2022/01/10 08:17:30;;;;;;;2.08;1.83;;;20.30;38.60;;;;;;5036391;28;20068;-60
2022/01/10 08:19:55;;;;;;;2.08;1.67;;;20.30;38.60;;;;;;5033969;28;20069;-60
2022/01/10 08:22:21;;;;;;;2.55;1.88;;;20.30;38.50;;;;;;5031250;28;35574;-60
2022/01/10 08:24:47;;;;;;;2.55;2.10;;;20.40;38.50;;;;;;5032879;28;20052;-60
2022/01/10 08:27:14;;;;;;;3.05;2.20;;;20.40;38.40;;;;;;5033169;28;20124;-60
2022/01/10 08:29:39;;;;;;;2.38;2.17;;;20.40;38.30;;;;;;5035137;28;20045;-61
2022/01/10 08:32:05;;;;;;;2.83;2.10;;;20.40;38.40;;;;;;5035621;28;20708;-59
2022/01/10 08:34:31;;;;;;;3.03;2.10;;;20.40;38.40;;;;;;5038645;28;20045;-60
2022/01/10 08:36:57;;;;;;;3.42;2.17;;;20.40;38.20;;;;;;5029748;28;32777;-59
2022/01/10 08:39:22;;;;;;;2.10;1.88;;;20.40;38.30;;;;;;5032883;28;20051;-60
2022/01/10 08:41:48;;;;;;;2.85;2.05;;;20.40;38.20;;;;;;5033228;28;20484;-60
2022/01/10 08:44:15;;;;;;;3.28;2.40;;;20.40;38.20;;;;;;5035832;28;20086;-60
2022/01/10 08:46:41;;;;;;;4.88;1.90;;;20.50;38.30;;;;;;5032977;28;20080;-60
2022/01/10 08:49:07;;;;;;;2.40;1.95;;;20.50;38.30;;;;;;5033491;28;20037;-59
2022/01/10 08:51:34;;;;;;;3.78;2.10;;;20.50;38.30;;;;;;5031952;28;42813;-60
2022/01/10 08:54:02;;;;;;;2.63;1.98;;;20.50;38.30;;;;;;5033846;28;20072;-60
2022/01/10 08:56:28;;;;;;;2.78;1.83;;;20.50;38.30;;;;;;5034926;28;20045;-60
2022/01/10 08:58:54;;;;;;;2.78;1.95;;;20.50;38.30;;;;;;5032266;28;20380;-60
2022/01/10 09:01:21;;;;;;;2.78;2.20;;;20.60;38.40;;;;;;5034664;28;20534;-60
2022/01/10 09:03:47;;;;;;;2.42;2.22;;;20.60;38.30;;;;;;5032005;28;20570;-60
2022/01/10 09:06:13;;;;;;;2.55;2.17;;;20.60;38.40;;;;;;5033059;28;43004;-61
2022/01/10 09:08:41;;;;;;;3.33;2.30;;;20.60;38.40;;;;;;5033637;28;20090;-60
2022/01/10 09:11:06;;;;;;;3.03;2.45;;;20.60;38.40;;;;;;5029258;28;20441;-59
2022/01/10 09:13:32;;;;;;;3.45;2.20;;;20.60;38.40;;;;;;5032783;28;20401;-60
2022/01/10 09:15:58;;;;;;;10.10;2.50;;;20.60;38.90;;;;;;5029697;28;20088;-59
2022/01/10 09:18:24;;;;;;;4.70;2.47;;;20.60;38.70;;;;;;5029529;28;35678;-60
2022/01/10 09:20:51;;;;;;;3.22;2.50;;;20.60;39.00;;;;;;5029996;28;20056;-60
2022/01/10 09:23:17;;;;;;;5.47;2.40;;;20.70;39.10;;;;;;5032041;28;20122;-60
2022/01/10 09:25:44;;;;;;;2.88;2.58;;;20.70;39.20;;;;;;5031488;28;20033;-60
2022/01/10 09:28:10;;;;;;;4.55;2.50;;;20.70;39.30;;;;;;5032343;28;20056;-60
2022/01/10 09:30:36;;;;;;;4.03;2.50;;;20.70;39.30;;;;;;5032405;28;20425;-60
2022/01/10 09:33:01;;;;;;;3.95;2.58;;;20.70;39.40;;;;;;5032144;28;42889;-61
2022/01/10 09:35:27;;;;;;;5.32;2.55;;;20.70;39.40;;;;;;5033102;28;20056;-59
2022/01/10 09:37:52;;;;;;;4.15;2.33;;;20.70;39.40;;;;;;5033341;28;20072;-61
2022/01/10 09:40:18;;;;;;;3.10;2.28;;;20.70;39.40;;;;;;5034768;28;20082;-60
2022/01/10 09:42:46;;;;;;;3.25;2.53;;;20.70;39.50;;;;;;5031850;28;20058;-61
2022/01/10 09:45:11;;;;;;;3.90;2.50;;;20.80;39.60;;;;;;5033890;28;20041;-60
2022/01/10 09:47:37;;;;;;;2.65;2.03;;;20.80;39.60;;;;;;5028704;28;43162;-60
2022/01/10 09:50:06;;;;;;;3.53;2.50;;;20.80;39.50;;;;;;5030397;28;20072;-59
2022/01/10 09:52:33;;;;;;;3.60;2.40;;;20.80;39.50;;;;;;5037010;28;20041;-60
2022/01/10 09:54:58;;;;;;;3.65;2.28;;;20.80;39.50;;;;;;5030924;28;20043;-60
2022/01/10 09:57:24;;;;;;;2.65;2.03;;;20.80;39.50;;;;;;5033278;28;21574;-59
2022/01/10 09:59:50;;;;;;;5.10;2.40;;;20.80;39.50;;;;;;5032963;28;20103;-60
2022/01/10 10:02:17;;;;;;;4.88;2.45;;;20.80;39.50;;;;;;5029947;28;43116;-61
2022/01/10 10:04:43;;;;;;;3.10;2.30;;;20.90;39.70;;;;;;5032823;28;20138;-60
2022/01/10 10:07:10;;;;;;;3.50;2.30;;;20.90;39.70;;;;;;5032101;28;20060;-60
2022/01/10 10:09:36;;;;;;;4.95;2.25;;;20.80;39.60;;;;;;5037349;28;20118;-60
2022/01/10 10:12:03;;;;;;;6.25;2.60;;;20.80;39.60;;;;;;5034091;28;20068;-60
2022/01/10 10:14:29;;;;;;;3.47;2.53;;;20.90;39.70;;;;;;5033037;28;40552;-59
2022/01/10 10:16:56;;;;;;;5.15;2.47;;;20.90;39.80;;;;;;5032388;28;20037;-60
2022/01/10 10:19:28;;;;;;;4.38;2.63;;;20.90;39.70;;;;;;5036808;28;20044;-60
2022/01/10 10:21:56;;;;;;;3.53;2.50;;;20.90;39.70;;;;;;5032556;28;20083;-60
2022/01/10 10:24:23;;;;;;;3.47;2.28;;;20.90;39.70;;;;;;5034115;28;20551;-65
2022/01/10 10:26:49;;;;;;;3.55;2.50;;;20.90;39.70;;;;;;5030791;28;20048;-60
2022/01/10 10:29:17;;;;;;;4.78;2.28;;;20.90;39.60;;;;;;5031367;28;30247;-60
2022/01/10 10:31:48;;;;;;;5.53;2.65;;;20.90;39.70;;;;;;5032590;28;20073;-60
2022/01/10 10:34:28;;;;;;;3.20;2.28;;;20.90;39.60;;;;;;5030662;28;20141;-60
2022/01/10 10:37:07;;;;;;;3.03;2.15;;;20.90;39.60;;;;;;5029314;28;20631;-60
2022/01/10 10:39:35;;;;;;;2.58;2.15;;;20.90;39.50;;;;;;5033588;28;20732;-60
2022/01/10 10:42:03;;;;;;;4.65;2.80;;;20.90;39.50;;;;;;5031450;28;20064;-60
2022/01/10 10:44:29;;;;;;;3.60;2.40;;;21.00;39.60;;;;;;5031515;28;20041;-60
2022/01/10 10:46:56;;;;;;;3.92;2.70;;;21.00;39.50;;;;;;5031037;28;20407;-59
2022/01/10 10:49:30;;;;;;;3.75;2.50;;;21.00;39.60;;;;;;5031883;28;20448;-60
2022/01/10 10:51:57;;;;;;;2.97;2.35;;;21.00;39.60;;;;;;5030357;28;20158;-59
2022/01/10 10:54:23;;;;;;;2.63;2.30;;;21.00;39.60;;;;;;5031397;28;20148;-59
2022/01/10 10:56:49;;;;;;;6.22;2.42;;;21.00;39.60;;;;;;5032132;28;20046;-59
2022/01/10 10:59:15;;;;;;;5.35;2.40;;;21.00;40.50;;;;;;5031997;28;20461;-60
2022/01/10 11:01:42;;;;;;;4.00;2.40;;;21.00;39.70;;;;;;5033372;28;37827;-60
2022/01/10 11:04:10;;;;;;;6.82;3.17;;;21.00;39.70;;;;;;5033962;28;20048;-61
2022/01/10 11:06:40;;;;;;;3.72;2.70;;;21.10;39.90;;;;;;5035530;28;20069;-60
2022/01/10 11:09:12;;;;;;;3.40;2.67;;;21.10;39.90;;;;;;5037027;28;20504;-61
2022/01/10 11:11:40;;;;;;;3.53;2.60;;;21.00;39.80;;;;;;5036649;28;20029;-60
2022/01/10 11:14:09;;;;;;;3.58;2.50;;;21.10;39.90;;;;;;5036652;28;20040;-60
2022/01/10 11:16:38;;;;;;;5.18;2.92;;;21.10;39.80;;;;;;5032663;28;40645;-60
2022/01/10 11:19:14;;;;;;;5.60;2.65;;;21.10;39.90;;;;;;5052778;28;20065;-61
2022/01/10 11:21:41;;;;;;;3.30;2.33;;;21.10;39.90;;;;;;5034921;28;20115;-60
2022/01/10 11:24:07;;;;;;;4.25;2.38;;;21.10;39.90;;;;;;5036936;28;20497;-61
2022/01/10 11:26:40;;;;;;;5.18;2.80;;;21.10;39.90;;;;;;5036810;28;20626;-60
2022/01/10 11:29:09;;;;;;;5.05;3.08;;;21.10;40.00;;;;;;5034266;28;33339;-60
2022/01/10 11:31:36;;;;;;;5.65;2.90;;;21.10;40.00;;;;;;5037795;28;20041;-60
2022/01/10 11:34:03;;;;;;;5.03;3.13;;;21.10;40.10;;;;;;5035566;28;20045;-60
2022/01/10 11:36:29;;;;;;;9.85;3.47;;;21.10;40.40;;;;;;5036863;28;20067;-61
2022/01/10 11:39:00;;;;;;;5.70;3.03;;;21.10;40.40;;;;;;5034033;28;20041;-60
2022/01/10 11:41:29;;;;;;;4.68;3.00;;;21.20;40.70;;;;;;5037569;28;20080;-61
2022/01/10 11:44:02;;;;;;;6.93;3.08;;;21.20;40.80;;;;;;5033386;28;40553;-60
2022/01/10 11:46:49;;;;;;;4.78;3.13;;;21.20;40.90;;;;;;5036721;28;20053;-60
2022/01/10 11:49:17;;;;;;;4.88;3.00;;;21.20;41.00;;;;;;5037488;28;20037;-59
2022/01/10 11:51:45;;;;;;;6.75;2.60;;;21.10;41.00;;;;;;5034414;28;20061;-59
2022/01/10 11:54:12;;;;;;;4.97;3.00;;;21.20;41.20;;;;;;5036698;28;20044;-59
2022/01/10 11:56:41;;;;;;;5.80;3.17;;;21.20;41.20;;;;;;5035923;28;20405;-60
2022/01/10 11:59:19;;;;;;;5.55;2.95;;;21.20;41.10;;;;;;5035852;28;20141;-59
2022/01/10 12:01:52;;;;;;;5.47;3.00;;;21.20;41.10;;;;;;5035881;28;20112;-59
2022/01/10 12:04:21;;;;;;;5.72;3.10;;;21.20;41.10;;;;;;5035820;28;20432;-60
2022/01/10 12:06:48;;;;;;;4.28;2.78;;;21.20;41.10;;;;;;5038305;28;20114;-60
2022/01/10 12:09:14;;;;;;;5.15;2.90;;;21.20;41.00;;;;;;5034894;28;20037;-60
2022/01/10 12:11:40;;;;;;;4.63;2.80;;;21.20;41.00;;;;;;5034258;28;38098;-59
2022/01/10 12:14:07;;;;;;;5.28;3.00;;;21.20;40.90;;;;;;5031813;28;20047;-61
2022/01/10 12:16:33;;;;;;;5.15;2.75;;;21.20;41.00;;;;;;5035284;28;20566;-58
2022/01/10 12:18:59;;;;;;;4.15;2.80;;;21.20;40.90;;;;;;5033383;28;20131;-59
2022/01/10 12:21:25;;;;;;;5.28;2.80;;;21.20;40.90;;;;;;5033370;28;20573;-60
2022/01/10 12:23:52;;;;;;;8.27;2.92;;;21.20;40.80;;;;;;5036815;28;20036;-60
2022/01/10 12:26:22;;;;;;;4.03;2.70;;;21.20;40.80;;;;;;5031118;28;28299;-59
2022/01/10 12:28:51;;;;;;;5.57;2.90;;;21.20;40.80;;;;;;5033719;28;20766;-60
2022/01/10 12:31:19;;;;;;;4.13;2.80;;;21.20;40.70;;;;;;5033770;28;20068;-60
2022/01/10 12:33:44;;;;;;;6.30;3.10;;;21.20;40.70;;;;;;5028799;28;20506;-59
2022/01/10 12:36:11;;;;;;;3.42;2.83;;;21.20;40.70;;;;;;5035649;28;20033;-59
2022/01/10 12:38:38;;;;;;;8.55;3.28;;;21.20;40.70;;;;;;5032577;28;20115;-59
2022/01/10 12:41:04;;;;;;;7.97;3.17;;;21.20;40.70;;;;;;5029324;28;36194;-60
2022/01/10 12:43:29;;;;;;;6.18;2.97;;;21.20;40.60;;;;;;5031767;28;20084;-59
2022/01/10 12:45:55;;;;;;;7.20;2.92;;;21.20;40.70;;;;;;5034878;28;20126;-60
2022/01/10 12:48:24;;;;;;;4.70;2.95;;;21.20;40.60;;;;;;5034983;28;20037;-60
2022/01/10 12:50:52;;;;;;;7.03;3.45;;;21.20;40.50;;;;;;5035388;28;20044;-59
2022/01/10 12:53:18;;;;;;;5.00;2.90;;;21.20;40.50;;;;;;5032628;28;39231;-60